createdAt,value
2023-02-12T00:00:53.245Z,99039.28
2023-02-12T00:03:19.897Z,99037.47
2023-02-12T00:05:46.502Z,99031.31
2023-02-12T00:08:14.277Z,99024.28
2023-02-12T00:10:43.156Z,99019.19
2023-02-12T00:13:13.399Z,99034.16
2023-02-12T00:15:43.548Z,99033.38
2023-02-12T00:18:10.733Z,99028.09
2023-02-12T00:20:38.848Z,99028.06
2023-02-12T00:23:06.272Z,99030.63
2023-02-12T00:25:33.884Z,99026.22
2023-02-12T00:28:00.540Z,99025.28
2023-02-12T00:30:27.382Z,99020.88
2023-02-12T00:32:55.207Z,99023.47
2023-02-12T00:35:21.807Z,99023.50
2023-02-12T00:37:49.995Z,99028.84
2023-02-12T00:40:16.676Z,99027.94
2023-02-12T00:42:43.277Z,99024.47
2023-02-12T00:45:10.190Z,99031.47
2023-02-12T00:47:36.771Z,99035.69
2023-02-12T00:50:03.535Z,99029.53
2023-02-12T00:52:30.152Z,99027.75
2023-02-12T00:54:57.635Z,99032.94
2023-02-12T00:57:24.225Z,99026.09
2023-02-12T00:59:50.889Z,99034.06
2023-02-12T01:02:18.151Z,99039.41
2023-02-12T01:04:45.723Z,99046.28
2023-02-12T01:07:12.300Z,99044.44
2023-02-12T01:09:38.993Z,99038.31
2023-02-12T01:12:06.262Z,99041.75
2023-02-12T01:14:33.116Z,99038.22
2023-02-12T01:16:59.687Z,99036.41
2023-02-12T01:19:26.327Z,99040.69
2023-02-12T01:21:52.933Z,99044.38
2023-02-12T01:24:19.523Z,99046.16
2023-02-12T01:26:46.106Z,99047.84
2023-02-12T01:29:12.694Z,99043.47
2023-02-12T01:31:39.743Z,99043.44
2023-02-12T01:34:07.475Z,99039.91
2023-02-12T01:36:35.307Z,99036.44
2023-02-12T01:39:03.072Z,99039.03
2023-02-12T01:41:36.190Z,99039.03
2023-02-12T01:44:21.399Z,99044.25
2023-02-12T01:46:57.005Z,99040.69
2023-02-12T01:49:30.759Z,99049.34
2023-02-12T01:52:13.302Z,99033.59
2023-02-12T01:54:40.563Z,99028.31
2023-02-12T01:57:09.431Z,99029.25
2023-02-12T01:59:38.636Z,99025.09
2023-02-12T02:02:05.708Z,99023.47
2023-02-12T02:04:48.541Z,99020.00
2023-02-12T02:07:15.284Z,99023.50
2023-02-12T02:09:42.509Z,99028.59
2023-02-12T02:12:27.741Z,99027.63
2023-02-12T02:15:00.183Z,99021.44
2023-02-12T02:17:38.831Z,99023.16
2023-02-12T02:20:19.306Z,99017.09
2023-02-12T02:23:13.008Z,99017.09
2023-02-12T02:26:17.078Z,99014.47
2023-02-12T02:28:58.162Z,99015.31
2023-02-12T02:31:35.852Z,99020.63
2023-02-12T02:34:28.996Z,99016.44
2023-02-12T02:37:16.018Z,99011.16
2023-02-12T02:39:54.046Z,99018.91
2023-02-12T02:42:35.331Z,99011.88
2023-02-12T02:45:26.438Z,99017.97
2023-02-12T02:47:58.744Z,99025.69
2023-02-12T02:50:29.232Z,99011.78
2023-02-12T02:53:10.423Z,99014.38
2023-02-12T02:55:43.002Z,99020.47
2023-02-12T02:58:16.194Z,99016.09
2023-02-12T03:00:48.916Z,99009.97
2023-02-12T03:03:24.015Z,99013.63
2023-02-12T03:05:55.410Z,99024.91
2023-02-12T03:08:36.180Z,99010.91
2023-02-12T03:11:15.019Z,99008.22
2023-02-12T03:14:04.803Z,99011.69
2023-02-12T03:16:39.729Z,99010.81
2023-02-12T03:19:15.445Z,99015.09
2023-02-12T03:21:50.081Z,99012.47
2023-02-12T03:24:24.000Z,99013.41
2023-02-12T03:27:02.494Z,99005.50
2023-02-12T03:29:29.236Z,99009.00
2023-02-12T03:32:27.747Z,98998.63
2023-02-12T03:35:08.823Z,99004.69
2023-02-12T03:38:16.627Z,99004.72
2023-02-12T03:40:55.503Z,99007.25
2023-02-12T03:43:30.337Z,99004.63
2023-02-12T03:46:15.310Z,99007.22
2023-02-12T03:48:52.865Z,99006.31
2023-02-12T03:51:32.740Z,99008.78
2023-02-12T03:54:01.354Z,99005.22
2023-02-12T03:56:54.190Z,99005.16
2023-02-12T03:59:23.800Z,99006.28
2023-02-12T04:01:53.538Z,99011.63
2023-02-12T04:04:21.150Z,99006.44
2023-02-12T04:06:50.477Z,99005.50
2023-02-12T04:09:17.670Z,99008.13
2023-02-12T04:11:59.242Z,99011.56
2023-02-12T04:14:34.776Z,99010.69
2023-02-12T04:17:29.103Z,99013.31
2023-02-12T04:20:21.964Z,99015.88
2023-02-12T04:22:59.687Z,99019.34
2023-02-12T04:25:51.133Z,99018.50
2023-02-12T04:28:20.376Z,99021.06
2023-02-12T04:31:01.392Z,99023.78
2023-02-12T04:33:43.672Z,99011.59
2023-02-12T04:36:18.170Z,99016.75
2023-02-12T04:38:51.754Z,99016.63
2023-02-12T04:41:18.627Z,99013.19
2023-02-12T04:43:45.559Z,99016.78
2023-02-12T04:46:12.136Z,99021.13
2023-02-12T04:48:51.980Z,99018.50
2023-02-12T04:51:18.598Z,99022.84
2023-02-12T04:53:45.199Z,99015.03
2023-02-12T04:56:13.291Z,99023.72
2023-02-12T04:58:41.342Z,99030.81
2023-02-12T05:01:09.166Z,99024.72
2023-02-12T05:03:36.465Z,99027.34
2023-02-12T05:06:05.213Z,99031.56
2023-02-12T05:08:32.025Z,99029.81
2023-02-12T05:11:04.249Z,99026.34
2023-02-12T05:13:30.883Z,99026.31
2023-02-12T05:15:57.705Z,99028.91
2023-02-12T05:18:24.916Z,99028.06
2023-02-12T05:21:03.479Z,99029.06
2023-02-12T05:23:31.855Z,99022.03
2023-02-12T05:25:59.545Z,99027.22
2023-02-12T05:28:26.837Z,99029.03
2023-02-12T05:30:53.503Z,99025.50
2023-02-12T05:33:20.228Z,99029.84
2023-02-12T05:35:46.802Z,99032.47
2023-02-12T05:38:13.409Z,99028.06
2023-02-12T05:40:40.372Z,99029.75
2023-02-12T05:43:06.969Z,99029.72
2023-02-12T05:45:33.557Z,99032.22
2023-02-12T05:48:00.203Z,99033.88
2023-02-12T05:50:26.801Z,99035.59
2023-02-12T05:53:01.173Z,99035.81
2023-02-12T05:55:27.852Z,99043.66
2023-02-12T05:57:54.896Z,99041.91
2023-02-12T06:00:21.941Z,99041.91
2023-02-12T06:02:48.529Z,99045.44
2023-02-12T06:05:15.189Z,99038.47
2023-02-12T06:07:41.812Z,99040.22
2023-02-12T06:10:08.996Z,99053.44
2023-02-12T06:12:35.563Z,99046.47
2023-02-12T06:15:02.156Z,99046.47
2023-02-12T06:17:28.764Z,99048.22
2023-02-12T06:19:55.352Z,99055.09
2023-02-12T06:22:21.921Z,99050.69
2023-02-12T06:24:48.506Z,99044.56
2023-02-12T06:27:15.071Z,99054.19
2023-02-12T06:29:41.779Z,99055.00
2023-02-12T06:32:08.594Z,99051.59
2023-02-12T06:34:35.481Z,99055.91
2023-02-12T06:37:02.098Z,99053.38
2023-02-12T06:39:28.715Z,99051.66
2023-02-12T06:41:55.312Z,99049.00
2023-02-12T06:44:21.942Z,99055.91
2023-02-12T06:46:48.771Z,99052.34
2023-02-12T06:49:16.285Z,99058.44
2023-02-12T06:51:42.977Z,99061.97
2023-02-12T06:54:17.859Z,99063.66
2023-02-12T06:56:45.036Z,99065.44
2023-02-12T06:59:15.345Z,99066.41
2023-02-12T07:01:41.982Z,99064.56
2023-02-12T07:04:09.123Z,99068.00
2023-02-12T07:06:36.492Z,99058.34
2023-02-12T07:09:04.815Z,99069.72
2023-02-12T07:11:36.856Z,99061.00
2023-02-12T07:14:04.624Z,99067.00
2023-02-12T07:16:31.318Z,99063.44
2023-02-12T07:18:58.207Z,99060.84
2023-02-12T07:21:24.842Z,99072.00
2023-02-12T07:23:52.991Z,99066.72
2023-02-12T07:26:21.208Z,99063.91
2023-02-12T07:28:48.581Z,99063.75
2023-02-12T07:31:21.179Z,99069.59
2023-02-12T07:33:48.777Z,99061.53
2023-02-12T07:36:18.277Z,99067.28
2023-02-12T07:38:45.714Z,99067.88
2023-02-12T07:41:23.186Z,99060.69
2023-02-12T07:43:54.571Z,99063.91
2023-02-12T07:46:29.899Z,99062.03
2023-02-12T07:49:02.757Z,99068.81
2023-02-12T07:51:29.377Z,99069.72
2023-02-12T07:53:56.665Z,99074.19
2023-02-12T07:56:29.577Z,99069.72
2023-02-12T07:58:56.870Z,99074.81
2023-02-12T08:01:31.123Z,99070.25
2023-02-12T08:04:00.598Z,99071.53
2023-02-12T08:06:29.813Z,99078.97
2023-02-12T08:08:59.541Z,99074.00
2023-02-12T08:11:27.975Z,99071.28
2023-02-12T08:13:55.041Z,99070.44
2023-02-12T08:16:24.458Z,99073.84
2023-02-12T08:18:52.017Z,99078.22
2023-02-12T08:21:25.062Z,99078.28
2023-02-12T08:23:53.453Z,99082.63
2023-02-12T08:26:39.581Z,99076.88
2023-02-12T08:29:09.626Z,99082.16
2023-02-12T08:31:39.073Z,99085.78
2023-02-12T08:34:06.128Z,99083.88
2023-02-12T08:36:40.191Z,99085.53
2023-02-12T08:39:08.052Z,99085.34
2023-02-12T08:41:35.315Z,99084.81
2023-02-12T08:44:04.267Z,99086.75
2023-02-12T08:46:34.181Z,99089.44
2023-02-12T08:49:06.812Z,99088.66
2023-02-12T08:51:35.892Z,99083.84
2023-02-12T08:54:05.848Z,99087.47
2023-02-12T08:56:34.175Z,99088.41
2023-02-12T08:59:02.613Z,99084.97
2023-02-12T09:01:33.435Z,99079.69
2023-02-12T09:04:00.693Z,99078.44
2023-02-12T09:06:28.273Z,99079.16
2023-02-12T09:08:55.860Z,99081.88
2023-02-12T09:11:30.505Z,99085.31
2023-02-12T09:14:03.177Z,99089.56
2023-02-12T09:16:31.675Z,99095.81
2023-02-12T09:18:58.438Z,99096.84
2023-02-12T09:21:25.566Z,99097.41
2023-02-12T09:23:52.524Z,99093.97
2023-02-12T09:26:22.100Z,99090.56
2023-02-12T09:28:50.376Z,99099.84
2023-02-12T09:31:29.258Z,99096.28
2023-02-12T09:33:59.670Z,99101.16
2023-02-12T09:36:26.611Z,99108.19
2023-02-12T09:38:54.264Z,99106.69
2023-02-12T09:42:04.796Z,99110.81
2023-02-12T09:44:50.379Z,99109.44
2023-02-12T09:47:31.080Z,99111.13
2023-02-12T09:50:15.955Z,99112.66
2023-02-12T09:52:43.093Z,99108.72
2023-02-12T09:55:16.271Z,99106.78
2023-02-12T09:57:43.713Z,99113.84
2023-02-12T10:00:16.369Z,99117.81
2023-02-12T10:02:42.997Z,99112.38
2023-02-12T10:05:38.616Z,99106.09
2023-02-12T10:08:36.140Z,99109.44
2023-02-12T10:11:41.773Z,99102.63
2023-02-12T10:14:27.197Z,99118.97
2023-02-12T10:17:07.861Z,99112.28
2023-02-12T10:19:50.693Z,99113.06
2023-02-12T10:22:26.254Z,99108.69
2023-02-12T10:25:19.931Z,99106.06
2023-02-12T10:27:52.038Z,99123.00
2023-02-12T10:30:24.649Z,99116.84
2023-02-12T10:32:58.833Z,99118.72
2023-02-12T10:35:25.990Z,99124.69
2023-02-12T10:37:59.775Z,99125.28
2023-02-12T10:40:30.303Z,99122.22
2023-02-12T10:42:57.921Z,99117.97
2023-02-12T10:45:26.672Z,99116.81
2023-02-12T10:48:05.794Z,99119.34
2023-02-12T10:50:48.811Z,99117.47
2023-02-12T10:53:20.917Z,99116.72
2023-02-12T10:55:48.184Z,99118.53
2023-02-12T10:58:21.910Z,99107.81
2023-02-12T11:00:57.117Z,99109.34
2023-02-12T11:03:29.035Z,99111.16
2023-02-12T11:05:56.595Z,99108.66
2023-02-12T11:08:29.089Z,99104.09
2023-02-12T11:10:56.080Z,99095.19
2023-02-12T11:13:26.245Z,99105.19
2023-02-12T11:15:53.935Z,99103.53
2023-02-12T11:18:32.735Z,99089.16
2023-02-12T11:21:11.468Z,99085.34
2023-02-12T11:23:43.236Z,99083.22
2023-02-12T11:26:18.824Z,99079.53
2023-02-12T11:29:01.549Z,99078.31
2023-02-12T11:31:30.781Z,99068.41
2023-02-12T11:34:12.719Z,99062.91
2023-02-12T11:36:46.480Z,99055.25
2023-02-12T11:39:50.351Z,99060.81
2023-02-12T11:42:25.820Z,99061.94
2023-02-12T11:44:59.888Z,99060.94
2023-02-12T11:47:33.977Z,99058.41
2023-02-12T11:50:03.505Z,99060.34
2023-02-12T11:52:33.804Z,99061.91
2023-02-12T11:55:06.852Z,99051.22
2023-02-12T11:57:39.215Z,99057.88
2023-02-12T12:00:15.837Z,99054.97
2023-02-12T12:02:55.050Z,99052.53
2023-02-12T12:05:22.766Z,99051.69
2023-02-12T12:07:57.058Z,99052.34
2023-02-12T12:10:37.659Z,99044.84
2023-02-12T12:13:16.567Z,99048.75
2023-02-12T12:16:08.554Z,99044.41
2023-02-12T12:19:25.279Z,99047.69
2023-02-12T12:22:08.483Z,99047.50
2023-02-12T12:24:45.233Z,99034.25
2023-02-12T12:27:45.164Z,99044.00
2023-02-12T12:30:36.535Z,99034.41
2023-02-12T12:33:10.314Z,99039.97
2023-02-12T12:36:08.764Z,99037.34
2023-02-12T12:39:06.912Z,99030.50
2023-02-12T12:41:50.302Z,99032.38
2023-02-12T12:44:38.746Z,99033.41
2023-02-12T12:47:26.563Z,99033.31
2023-02-12T12:49:58.302Z,99030.81
2023-02-12T12:52:43.252Z,99025.63
2023-02-12T12:55:31.550Z,99027.34
2023-02-12T12:58:09.979Z,99027.78
2023-02-12T13:00:42.267Z,99023.53
2023-02-12T13:03:20.937Z,99020.56
2023-02-12T13:06:04.079Z,99029.06
2023-02-12T13:08:38.247Z,99014.09
2023-02-12T13:11:13.773Z,99004.59
2023-02-12T13:13:46.215Z,98995.84
2023-02-12T13:16:30.317Z,98999.84
2023-02-12T13:19:08.965Z,99003.75
2023-02-12T13:21:43.322Z,99002.56
2023-02-12T13:24:25.103Z,98997.31
2023-02-12T13:26:56.396Z,98995.59
2023-02-12T13:29:28.689Z,98993.41
2023-02-12T13:32:00.300Z,98994.34
2023-02-12T13:34:30.762Z,98991.28
2023-02-12T13:37:01.121Z,98990.91
2023-02-12T13:39:34.176Z,98991.63
2023-02-12T13:42:06.853Z,98990.00
2023-02-12T13:44:48.658Z,98992.47
2023-02-12T13:47:33.597Z,98986.84
2023-02-12T13:50:28.507Z,98979.63
2023-02-12T13:53:02.319Z,98981.28
2023-02-12T13:55:39.367Z,98979.16
2023-02-12T13:58:31.181Z,98983.56
2023-02-12T14:01:02.062Z,98972.78
2023-02-12T14:03:30.883Z,98981.31
2023-02-12T14:06:24.953Z,98976.06
2023-02-12T14:08:54.706Z,98978.84
2023-02-12T14:11:24.367Z,98972.69
2023-02-12T14:13:58.489Z,98971.34
2023-02-12T14:16:31.188Z,98973.91
2023-02-12T14:19:35.082Z,98969.94
2023-02-12T14:22:09.724Z,98964.88
2023-02-12T14:24:36.328Z,98968.22
2023-02-12T14:27:17.482Z,98963.59
2023-02-12T14:30:11.923Z,98967.53
2023-02-12T14:33:07.769Z,98968.75
2023-02-12T14:35:42.272Z,98967.09
2023-02-12T14:38:11.590Z,98974.19
2023-02-12T14:40:47.012Z,98968.72
2023-02-12T14:44:02.139Z,98963.28
2023-02-12T14:46:28.718Z,98971.13
2023-02-12T14:48:58.059Z,98973.09
2023-02-12T14:51:46.809Z,98971.38
2023-02-12T14:54:18.731Z,98966.31
2023-02-12T14:56:48.616Z,98967.53
2023-02-12T14:59:20.506Z,98970.13
2023-02-12T15:01:48.791Z,98962.97
2023-02-12T15:04:25.876Z,98963.56
2023-02-12T15:06:57.674Z,98960.47
2023-02-12T15:09:35.754Z,98963.09
2023-02-12T15:12:12.735Z,98968.94
2023-02-12T15:14:48.399Z,98960.50
2023-02-12T15:17:22.999Z,98962.97
2023-02-12T15:20:02.771Z,98968.06
2023-02-12T15:22:35.574Z,98960.41
2023-02-12T15:25:34.733Z,98964.84
2023-02-12T15:28:30.516Z,98961.28
2023-02-12T15:30:57.522Z,98967.47
2023-02-12T15:33:30.405Z,98951.88
2023-02-12T15:35:58.169Z,98955.63
2023-02-12T15:38:41.581Z,98968.72
2023-02-12T15:41:23.298Z,98966.09
2023-02-12T15:43:49.856Z,98959.13
2023-02-12T15:46:18.272Z,98961.75
2023-02-12T15:48:45.301Z,98956.75
2023-02-12T15:51:37.291Z,98954.34
2023-02-12T15:54:06.725Z,98948.88
2023-02-12T15:56:36.280Z,98950.69
2023-02-12T15:59:04.071Z,98953.69
2023-02-12T16:01:35.563Z,98951.09
2023-02-12T16:04:06.696Z,98952.88
2023-02-12T16:06:36.992Z,98942.34
2023-02-12T16:09:13.119Z,98944.19
2023-02-12T16:11:43.834Z,98947.72
2023-02-12T16:14:22.675Z,98947.91
2023-02-12T16:16:52.909Z,98949.72
2023-02-12T16:19:23.643Z,98950.63
2023-02-12T16:21:56.598Z,98950.63
2023-02-12T16:24:31.124Z,98945.47
2023-02-12T16:27:05.199Z,98945.56
2023-02-12T16:29:33.959Z,98943.03
2023-02-12T16:32:02.675Z,98940.41
2023-02-12T16:34:36.161Z,98938.81
2023-02-12T16:37:24.182Z,98945.88
2023-02-12T16:39:53.800Z,98945.88
2023-02-12T16:42:24.830Z,98939.88
2023-02-12T16:44:51.422Z,98945.16
2023-02-12T16:47:23.808Z,98945.19
2023-02-12T16:50:00.295Z,98947.81
2023-02-12T16:52:40.202Z,98946.16
2023-02-12T16:55:14.029Z,98949.78
2023-02-12T16:57:40.872Z,98948.22
2023-02-12T17:00:09.913Z,98954.22
2023-02-12T17:02:37.487Z,98952.50
2023-02-12T17:05:07.180Z,98956.00
2023-02-12T17:07:34.660Z,98957.75
2023-02-12T17:10:01.475Z,98958.75
2023-02-12T17:12:28.372Z,98956.31
2023-02-12T17:14:55.993Z,98956.38
2023-02-12T17:17:23.062Z,98973.13
2023-02-12T17:19:50.010Z,98966.19
2023-02-12T17:22:21.932Z,98981.03
2023-02-12T17:24:51.756Z,98975.75
2023-02-12T17:27:19.480Z,98975.00
2023-02-12T17:29:46.500Z,98982.88
2023-02-12T17:32:13.172Z,98976.69
2023-02-12T17:34:48.449Z,98982.66
2023-02-12T17:37:15.627Z,98983.44
2023-02-12T17:39:42.161Z,98979.94
2023-02-12T17:42:08.783Z,98983.78
2023-02-12T17:44:35.345Z,98995.31
2023-02-12T17:47:01.915Z,98984.78
2023-02-12T17:49:30.180Z,98981.16
2023-02-12T17:51:56.766Z,98988.84
2023-02-12T17:54:23.434Z,98980.94
2023-02-12T17:56:50.012Z,98988.03
2023-02-12T17:59:16.890Z,98985.41
2023-02-12T18:01:43.825Z,98984.50
2023-02-12T18:04:10.969Z,98981.84
2023-02-12T18:06:37.841Z,98981.81
2023-02-12T18:09:05.229Z,98983.66
2023-02-12T18:11:33.310Z,98987.09
2023-02-12T18:14:00.526Z,98987.13
2023-02-12T18:16:30.405Z,98986.28
2023-02-12T18:18:57.355Z,98984.66
2023-02-12T18:21:24.048Z,98986.38
2023-02-12T18:23:50.605Z,98991.97
2023-02-12T18:26:18.792Z,98988.56
2023-02-12T18:28:46.206Z,98988.69
2023-02-12T18:31:13.615Z,98990.25
2023-02-12T18:33:40.505Z,98988.47
2023-02-12T18:36:13.561Z,98984.88
2023-02-12T18:38:42.406Z,98985.78
2023-02-12T18:41:13.819Z,98984.00
2023-02-12T18:43:40.419Z,98985.72
2023-02-12T18:46:12.334Z,98984.06
2023-02-12T18:48:39.167Z,98980.66
2023-02-12T18:51:07.848Z,98977.53
2023-02-12T18:53:34.924Z,98982.16
2023-02-12T18:56:06.889Z,98977.75
2023-02-12T18:58:34.239Z,98979.59
2023-02-12T19:01:01.751Z,98976.97
2023-02-12T19:03:28.372Z,98978.81
2023-02-12T19:06:03.069Z,98978.13
2023-02-12T19:08:29.808Z,98972.06
2023-02-12T19:10:56.578Z,98977.50
2023-02-12T19:13:24.066Z,98976.94
2023-02-12T19:15:51.122Z,98981.41
2023-02-12T19:18:18.046Z,98979.56
2023-02-12T19:20:45.193Z,98984.34
2023-02-12T19:23:11.763Z,98983.22
2023-02-12T19:25:45.854Z,98979.75
2023-02-12T19:28:13.256Z,98986.63
2023-02-12T19:30:41.963Z,98981.28
2023-02-12T19:33:09.116Z,98984.78
2023-02-12T19:35:35.848Z,98983.03
2023-02-12T19:38:03.243Z,98985.66
2023-02-12T19:40:29.974Z,98982.13
2023-02-12T19:43:02.108Z,98977.78
2023-02-12T19:45:28.861Z,98983.88
2023-02-12T19:47:55.435Z,98980.34
2023-02-12T19:50:22.663Z,98979.47
2023-02-12T19:52:49.357Z,98983.88
2023-02-12T19:55:16.028Z,98983.88
2023-02-12T19:57:43.045Z,98986.47
2023-02-12T20:00:10.589Z,98983.91
2023-02-12T20:02:37.355Z,98975.16
2023-02-12T20:05:04.294Z,98977.78
2023-02-12T20:07:31.301Z,98982.13
2023-02-12T20:09:58.203Z,98970.78
2023-02-12T20:12:25.249Z,98979.59
2023-02-12T20:14:55.616Z,98974.34
2023-02-12T20:17:22.320Z,98983.16
2023-02-12T20:19:49.069Z,98970.03
2023-02-12T20:22:16.134Z,98978.84
2023-02-12T20:24:42.778Z,98977.09
2023-02-12T20:27:11.056Z,98978.75
2023-02-12T20:29:37.901Z,98974.50
2023-02-12T20:32:04.916Z,98977.94
2023-02-12T20:34:39.739Z,98984.09
2023-02-12T20:37:17.244Z,98979.00
2023-02-12T20:39:43.876Z,98981.59
2023-02-12T20:42:11.924Z,98982.53
2023-02-12T20:44:38.564Z,98981.59
2023-02-12T20:47:05.160Z,98982.50
2023-02-12T20:49:32.074Z,98978.03
2023-02-12T20:51:58.788Z,98975.41
2023-02-12T20:54:26.137Z,98981.59
2023-02-12T20:56:52.933Z,98979.06
2023-02-12T20:59:20.490Z,98977.28
2023-02-12T21:01:48.249Z,98972.88
2023-02-12T21:04:17.676Z,98975.56
2023-02-12T21:06:46.060Z,98982.56
2023-02-12T21:09:14.603Z,98979.91
2023-02-12T21:11:45.259Z,98978.28
2023-02-12T21:14:23.874Z,98985.28
2023-02-12T21:16:56.125Z,98980.97
2023-02-12T21:19:24.075Z,98978.34
2023-02-12T21:21:51.799Z,98979.38
2023-02-12T21:24:25.596Z,98981.94
2023-02-12T21:26:54.690Z,98983.63
2023-02-12T21:29:22.467Z,98984.56
2023-02-12T21:31:51.247Z,98983.75
2023-02-12T21:34:21.036Z,98983.84
2023-02-12T21:36:48.830Z,98989.94
2023-02-12T21:39:25.297Z,98990.78
2023-02-12T21:41:55.163Z,98991.72
2023-02-12T21:44:24.132Z,98989.94
2023-02-12T21:46:51.580Z,98983.84
2023-02-12T21:49:28.244Z,98983.00
2023-02-12T21:52:02.007Z,98987.34
2023-02-12T21:54:29.969Z,98984.72
2023-02-12T21:56:58.532Z,98987.31
2023-02-12T21:59:26.669Z,98982.97
2023-02-12T22:01:56.175Z,98989.06
2023-02-12T22:04:23.024Z,98992.72
2023-02-12T22:06:52.499Z,98987.34
2023-02-12T22:09:21.598Z,98981.19
2023-02-12T22:11:48.578Z,98982.06
2023-02-12T22:14:18.134Z,98987.22
2023-02-12T22:16:45.168Z,98997.75
2023-02-12T22:19:12.777Z,98983.00
2023-02-12T22:21:41.642Z,98989.88
2023-02-12T22:24:11.349Z,98990.75
2023-02-12T22:26:37.983Z,98994.31
2023-02-12T22:29:07.958Z,98984.66
2023-02-12T22:31:37.032Z,98985.41
2023-02-12T22:34:08.208Z,98987.16
2023-02-12T22:36:37.002Z,98987.28
2023-02-12T22:39:05.169Z,98985.59
2023-02-12T22:41:32.770Z,98979.41
2023-02-12T22:44:00.662Z,98978.50
2023-02-12T22:46:28.118Z,98980.50
2023-02-12T22:48:54.986Z,98980.59
2023-02-12T22:51:22.764Z,98982.19
2023-02-12T22:53:49.526Z,98983.13
2023-02-12T22:56:16.647Z,98988.53
2023-02-12T22:58:44.037Z,98987.63
2023-02-12T23:01:13.679Z,98990.28
2023-02-12T23:03:41.424Z,98995.53
2023-02-12T23:06:12.040Z,98998.09
2023-02-12T23:08:39.093Z,98996.28
2023-02-12T23:11:07.183Z,98995.31
2023-02-12T23:13:35.940Z,99004.00
2023-02-12T23:16:02.595Z,98996.38
2023-02-12T23:18:29.739Z,99005.97
2023-02-12T23:20:56.724Z,99004.19
2023-02-12T23:23:23.597Z,98999.09
2023-02-12T23:25:50.528Z,98992.88
2023-02-12T23:28:17.581Z,98992.03
2023-02-12T23:30:44.409Z,98996.38
2023-02-12T23:33:11.592Z,98993.91
2023-02-12T23:35:38.682Z,98987.06
2023-02-12T23:38:05.490Z,98986.91
2023-02-12T23:40:33.238Z,98987.88
2023-02-12T23:43:00.240Z,98993.16
2023-02-12T23:45:28.382Z,98981.78
2023-02-12T23:47:55.343Z,98989.63
2023-02-12T23:50:22.306Z,98981.03
2023-02-12T23:52:49.094Z,98988.09
2023-02-12T23:55:16.277Z,98980.22
2023-02-12T23:57:42.850Z,98983.66
